sensor_id;sensor_type;location;lat;lon;timestamp;pressure;altitude;pressure_sealevel;temperature;humidity
39954;BME280;25631;51.516;-0.470;2023-05-24T00:00:44;102401.57;;;14.46;29.45
39954;BME280;25631;51.516;-0.470;2023-05-24T00:03:21;102398.46;;;14.33;29.56
39954;BME280;25631;51.516;-0.470;2023-05-24T00:05:57;102396.21;;;14.33;29.64
39954;BME280;25631;51.516;-0.470;2023-05-24T00:08:34;102392.94;;;14.68;29.72
39954;BME280;25631;51.516;-0.470;2023-05-24T00:11:12;102393.67;;;14.64;29.82
39954;BME280;25631;51.516;-0.470;2023-05-24T00:13:48;102390.99;;;14.31;29.83
39954;BME280;25631;51.516;-0.470;2023-05-24T00:16:25;102391.65;;;14.29;29.75
39954;BME280;25631;51.516;-0.470;2023-05-24T00:19:01;102394.41;;;14.15;29.58
39954;BME280;25631;51.516;-0.470;2023-05-24T00:21:38;102398.73;;;14.09;29.47
39954;BME280;25631;51.516;-0.470;2023-05-24T00:24:14;102393.19;;;14.53;29.39
39954;BME280;25631;51.516;-0.470;2023-05-24T00:26:51;102395.13;;;14.03;29.27
39954;BME280;25631;51.516;-0.470;2023-05-24T00:29:27;102395.20;;;14.05;29.16
39954;BME280;25631;51.516;-0.470;2023-05-24T00:32:05;102393.55;;;14.16;29.05
39954;BME280;25631;51.516;-0.470;2023-05-24T00:34:42;102390.84;;;14.28;28.99
39954;BME280;25631;51.516;-0.470;2023-05-24T00:37:18;102390.48;;;14.13;28.95
39954;BME280;25631;51.516;-0.470;2023-05-24T00:39:55;102394.57;;;14.48;28.97
39954;BME280;25631;51.516;-0.470;2023-05-24T00:42:32;102393.36;;;14.26;28.88
39954;BME280;25631;51.516;-0.470;2023-05-24T00:45:09;102393.85;;;14.22;28.83
39954;BME280;25631;51.516;-0.470;2023-05-24T00:47:46;102392.07;;;14.21;28.86
39954;BME280;25631;51.516;-0.470;2023-05-24T00:50:23;102391.80;;;14.26;28.93
39954;BME280;25631;51.516;-0.470;2023-05-24T00:53:01;102388.90;;;14.05;29.00
39954;BME280;25631;51.516;-0.470;2023-05-24T00:55:38;102387.13;;;13.97;29.06
39954;BME280;25631;51.516;-0.470;2023-05-24T00:58:15;102387.39;;;14.25;29.23
39954;BME280;25631;51.516;-0.470;2023-05-24T01:00:54;102384.81;;;14.15;29.37
39954;BME280;25631;51.516;-0.470;2023-05-24T01:03:31;102384.33;;;14.19;29.44
39954;BME280;25631;51.516;-0.470;2023-05-24T01:06:08;102389.80;;;14.34;29.54
39954;BME280;25631;51.516;-0.470;2023-05-24T01:08:55;102389.46;;;14.34;29.59
39954;BME280;25631;51.516;-0.470;2023-05-24T01:11:47;102386.35;;;14.20;29.71
39954;BME280;25631;51.516;-0.470;2023-05-24T01:14:32;102382.08;;;13.87;29.82
39954;BME280;25631;51.516;-0.470;2023-05-24T01:17:16;102379.42;;;14.10;29.89
39954;BME280;25631;51.516;-0.470;2023-05-24T01:19:57;102375.89;;;13.91;30.01
39954;BME280;25631;51.516;-0.470;2023-05-24T01:22:48;102371.22;;;13.63;30.09
39954;BME280;25631;51.516;-0.470;2023-05-24T01:25:44;102367.61;;;13.86;30.16
39954;BME280;25631;51.516;-0.470;2023-05-24T01:28:23;102365.46;;;13.51;30.24
39954;BME280;25631;51.516;-0.470;2023-05-24T01:31:00;102366.89;;;13.47;30.36
39954;BME280;25631;51.516;-0.470;2023-05-24T01:33:40;102364.73;;;13.55;30.39
39954;BME280;25631;51.516;-0.470;2023-05-24T01:36:18;102365.46;;;13.51;30.44
39954;BME280;25631;51.516;-0.470;2023-05-24T01:38:54;102365.32;;;13.47;30.49
39954;BME280;25631;51.516;-0.470;2023-05-24T01:41:37;102363.53;;;13.40;30.54
39954;BME280;25631;51.516;-0.470;2023-05-24T01:44:23;102362.97;;;13.55;30.54
39954;BME280;25631;51.516;-0.470;2023-05-24T01:47:10;102362.25;;;13.32;30.55
39954;BME280;25631;51.516;-0.470;2023-05-24T01:49:52;102358.36;;;13.66;30.63
39954;BME280;25631;51.516;-0.470;2023-05-24T01:52:31;102356.74;;;13.15;30.73
39954;BME280;25631;51.516;-0.470;2023-05-24T01:55:12;102354.77;;;13.12;30.79
39954;BME280;25631;51.516;-0.470;2023-05-24T01:57:50;102355.34;;;13.32;30.76
39954;BME280;25631;51.516;-0.470;2023-05-24T02:00:29;102351.41;;;13.24;30.76
39954;BME280;25631;51.516;-0.470;2023-05-24T02:03:06;102349.37;;;13.32;30.74
39954;BME280;25631;51.516;-0.470;2023-05-24T02:05:44;102347.81;;;13.28;30.85
39954;BME280;25631;51.516;-0.470;2023-05-24T02:08:20;102350.96;;;13.20;31.01
39954;BME280;25631;51.516;-0.470;2023-05-24T02:10:57;102351.02;;;12.78;31.12
39954;BME280;25631;51.516;-0.470;2023-05-24T02:13:33;102351.35;;;12.67;31.27
39954;BME280;25631;51.516;-0.470;2023-05-24T02:16:10;102348.62;;;13.07;31.41
39954;BME280;25631;51.516;-0.470;2023-05-24T02:18:46;102348.26;;;12.91;31.66
39954;BME280;25631;51.516;-0.470;2023-05-24T02:21:23;102346.54;;;12.68;31.84
39954;BME280;25631;51.516;-0.470;2023-05-24T02:23:59;102341.86;;;12.75;31.97
39954;BME280;25631;51.516;-0.470;2023-05-24T02:26:36;102341.29;;;12.75;32.09
39954;BME280;25631;51.516;-0.470;2023-05-24T02:29:12;102341.02;;;12.68;32.24
39954;BME280;25631;51.516;-0.470;2023-05-24T02:31:49;102344.82;;;12.31;32.36
39954;BME280;25631;51.516;-0.470;2023-05-24T02:34:25;102346.43;;;12.18;32.46
39954;BME280;25631;51.516;-0.470;2023-05-24T02:37:02;102347.66;;;12.45;32.50
39954;BME280;25631;51.516;-0.470;2023-05-24T02:39:38;102351.29;;;12.15;32.61
39954;BME280;25631;51.516;-0.470;2023-05-24T02:42:15;102348.72;;;12.07;32.74
39954;BME280;25631;51.516;-0.470;2023-05-24T02:44:52;102348.29;;;11.99;32.85
39954;BME280;25631;51.516;-0.470;2023-05-24T02:47:28;102349.34;;;11.88;32.98
39954;BME280;25631;51.516;-0.470;2023-05-24T02:50:06;102352.11;;;11.90;33.05
39954;BME280;25631;51.516;-0.470;2023-05-24T02:52:43;102349.52;;;11.83;33.12
39954;BME280;25631;51.516;-0.470;2023-05-24T02:55:19;102354.44;;;11.86;33.13
39954;BME280;25631;51.516;-0.470;2023-05-24T02:57:56;102352.01;;;11.80;33.04
39954;BME280;25631;51.516;-0.470;2023-05-24T03:00:33;102351.98;;;11.93;33.00
39954;BME280;25631;51.516;-0.470;2023-05-24T03:03:09;102349.42;;;11.86;33.02
39954;BME280;25631;51.516;-0.470;2023-05-24T03:05:46;102346.28;;;12.06;33.15
39954;BME280;25631;51.516;-0.470;2023-05-24T03:08:22;102347.45;;;11.85;33.18
39954;BME280;25631;51.516;-0.470;2023-05-24T03:10:59;102348.07;;;11.81;33.11
39954;BME280;25631;51.516;-0.470;2023-05-24T03:13:35;102348.97;;;11.71;33.12
39954;BME280;25631;51.516;-0.470;2023-05-24T03:16:12;102353.98;;;11.99;33.14
39954;BME280;25631;51.516;-0.470;2023-05-24T03:18:48;102357.35;;;11.47;33.13
39954;BME280;25631;51.516;-0.470;2023-05-24T03:21:25;102356.86;;;11.63;33.22
39954;BME280;25631;51.516;-0.470;2023-05-24T03:24:01;102350.62;;;11.67;33.30
39954;BME280;25631;51.516;-0.470;2023-05-24T03:26:38;102352.17;;;11.51;33.49
39954;BME280;25631;51.516;-0.470;2023-05-24T03:29:14;102354.18;;;11.70;33.65
39954;BME280;25631;51.516;-0.470;2023-05-24T03:31:51;102358.91;;;11.47;33.83
39954;BME280;25631;51.516;-0.470;2023-05-24T03:34:27;102358.30;;;11.12;33.98
39954;BME280;25631;51.516;-0.470;2023-05-24T03:37:04;102356.56;;;11.18;34.01
39954;BME280;25631;51.516;-0.470;2023-05-24T03:39:40;102355.88;;;11.35;34.04
39954;BME280;25631;51.516;-0.470;2023-05-24T03:42:17;102356.56;;;11.20;34.08
39954;BME280;25631;51.516;-0.470;2023-05-24T03:44:54;102354.34;;;11.22;34.13
39954;BME280;25631;51.516;-0.470;2023-05-24T03:47:31;102356.00;;;11.21;34.23
39954;BME280;25631;51.516;-0.470;2023-05-24T03:50:08;102356.66;;;11.10;34.27
39954;BME280;25631;51.516;-0.470;2023-05-24T03:52:44;102355.98;;;11.15;34.35
39954;BME280;25631;51.516;-0.470;2023-05-24T03:55:21;102354.64;;;11.07;34.33
39954;BME280;25631;51.516;-0.470;2023-05-24T03:57:57;102356.80;;;11.07;34.32
39954;BME280;25631;51.516;-0.470;2023-05-24T04:00:34;102359.01;;;11.18;34.24
39954;BME280;25631;51.516;-0.470;2023-05-24T04:03:10;102362.68;;;10.98;34.24
39954;BME280;25631;51.516;-0.470;2023-05-24T04:05:47;102364.25;;;11.17;34.17
39954;BME280;25631;51.516;-0.470;2023-05-24T04:08:23;102368.20;;;11.12;34.11
39954;BME280;25631;51.516;-0.470;2023-05-24T04:11:00;102369.53;;;11.08;34.16
39954;BME280;25631;51.516;-0.470;2023-05-24T04:13:36;102367.13;;;11.18;34.23
39954;BME280;25631;51.516;-0.470;2023-05-24T04:16:12;102365.86;;;11.08;34.38
39954;BME280;25631;51.516;-0.470;2023-05-24T04:18:49;102368.46;;;10.97;34.42
39954;BME280;25631;51.516;-0.470;2023-05-24T04:21:26;102362.53;;;10.83;34.42
39954;BME280;25631;51.516;-0.470;2023-05-24T04:24:04;102363.60;;;10.82;34.49
39954;BME280;25631;51.516;-0.470;2023-05-24T04:26:40;102359.68;;;11.06;34.42
39954;BME280;25631;51.516;-0.470;2023-05-24T04:29:17;102358.02;;;10.79;34.46
39954;BME280;25631;51.516;-0.470;2023-05-24T04:31:53;102356.62;;;11.04;34.49
39954;BME280;25631;51.516;-0.470;2023-05-24T04:34:30;102354.80;;;10.95;34.59
39954;BME280;25631;51.516;-0.470;2023-05-24T04:37:07;102354.97;;;10.95;34.66
39954;BME280;25631;51.516;-0.470;2023-05-24T04:39:44;102354.60;;;10.88;34.70
39954;BME280;25631;51.516;-0.470;2023-05-24T04:42:21;102355.55;;;10.96;34.77
39954;BME280;25631;51.516;-0.470;2023-05-24T04:44:58;102355.57;;;11.24;34.70
39954;BME280;25631;51.516;-0.470;2023-05-24T04:47:34;102357.95;;;10.90;34.75
39954;BME280;25631;51.516;-0.470;2023-05-24T04:50:10;102356.52;;;11.10;34.76
39954;BME280;25631;51.516;-0.470;2023-05-24T04:52:47;102357.73;;;11.08;34.77
39954;BME280;25631;51.516;-0.470;2023-05-24T04:55:24;102357.56;;;11.22;34.76
39954;BME280;25631;51.516;-0.470;2023-05-24T04:58:01;102354.34;;;11.31;34.72
39954;BME280;25631;51.516;-0.470;2023-05-24T05:00:37;102356.35;;;11.39;34.64
39954;BME280;25631;51.516;-0.470;2023-05-24T05:03:14;102351.11;;;11.57;34.63
39954;BME280;25631;51.516;-0.470;2023-05-24T05:05:50;102349.85;;;11.43;34.60
39954;BME280;25631;51.516;-0.470;2023-05-24T05:08:27;102350.34;;;11.50;34.56
39954;BME280;25631;51.516;-0.470;2023-05-24T05:11:03;102351.51;;;11.11;34.56
39954;BME280;25631;51.516;-0.470;2023-05-24T05:13:40;102351.94;;;11.48;34.47
39954;BME280;25631;51.516;-0.470;2023-05-24T05:16:16;102351.28;;;11.79;34.50
39954;BME280;25631;51.516;-0.470;2023-05-24T05:18:53;102353.20;;;11.74;34.61
39954;BME280;25631;51.516;-0.470;2023-05-24T05:21:29;102353.51;;;11.56;34.69
39954;BME280;25631;51.516;-0.470;2023-05-24T05:24:06;102356.16;;;11.54;34.65
39954;BME280;25631;51.516;-0.470;2023-05-24T05:26:43;102355.83;;;11.29;34.85
39954;BME280;25631;51.516;-0.470;2023-05-24T05:29:19;102357.28;;;11.39;34.88
39954;BME280;25631;51.516;-0.470;2023-05-24T05:31:56;102351.06;;;11.15;34.92
39954;BME280;25631;51.516;-0.470;2023-05-24T05:34:33;102351.57;;;11.17;35.09
39954;BME280;25631;51.516;-0.470;2023-05-24T05:37:09;102352.95;;;11.19;35.17
39954;BME280;25631;51.516;-0.470;2023-05-24T05:39:46;102354.00;;;11.29;35.14
39954;BME280;25631;51.516;-0.470;2023-05-24T05:42:23;102355.18;;;11.00;35.11
39954;BME280;25631;51.516;-0.470;2023-05-24T05:44:59;102356.45;;;11.36;35.21
39954;BME280;25631;51.516;-0.470;2023-05-24T05:47:35;102363.72;;;11.18;35.28
39954;BME280;25631;51.516;-0.470;2023-05-24T05:50:12;102363.63;;;11.80;35.18
39954;BME280;25631;51.516;-0.470;2023-05-24T05:52:48;102365.41;;;11.62;35.31
39954;BME280;25631;51.516;-0.470;2023-05-24T05:55:25;102366.14;;;11.63;35.37
39954;BME280;25631;51.516;-0.470;2023-05-24T05:58:01;102360.72;;;11.49;35.43
39954;BME280;25631;51.516;-0.470;2023-05-24T06:00:39;102356.56;;;11.73;35.39
39954;BME280;25631;51.516;-0.470;2023-05-24T06:03:16;102360.61;;;11.51;35.50
39954;BME280;25631;51.516;-0.470;2023-05-24T06:05:52;102357.57;;;11.72;35.53
39954;BME280;25631;51.516;-0.470;2023-05-24T06:08:28;102362.35;;;11.99;35.37
39954;BME280;25631;51.516;-0.470;2023-05-24T06:11:05;102363.95;;;11.86;35.19
39954;BME280;25631;51.516;-0.470;2023-05-24T06:13:42;102368.03;;;11.89;35.07
39954;BME280;25631;51.516;-0.470;2023-05-24T06:16:18;102368.48;;;12.20;35.12
39954;BME280;25631;51.516;-0.470;2023-05-24T06:18:55;102370.06;;;12.00;35.03
39954;BME280;25631;51.516;-0.470;2023-05-24T06:21:31;102370.34;;;12.07;35.05
39954;BME280;25631;51.516;-0.470;2023-05-24T06:24:08;102369.62;;;12.34;34.98
39954;BME280;25631;51.516;-0.470;2023-05-24T06:26:44;102370.87;;;12.23;35.00
39954;BME280;25631;51.516;-0.470;2023-05-24T06:29:21;102374.28;;;12.36;34.90
39954;BME280;25631;51.516;-0.470;2023-05-24T06:31:58;102380.55;;;12.29;34.85
39954;BME280;25631;51.516;-0.470;2023-05-24T06:34:34;102383.60;;;12.50;34.88
39954;BME280;25631;51.516;-0.470;2023-05-24T06:37:11;102385.05;;;12.12;35.07
39954;BME280;25631;51.516;-0.470;2023-05-24T06:39:47;102387.67;;;12.11;35.05
39954;BME280;25631;51.516;-0.470;2023-05-24T06:42:23;102385.09;;;12.36;35.03
39954;BME280;25631;51.516;-0.470;2023-05-24T06:45:00;102384.76;;;12.22;35.05
39954;BME280;25631;51.516;-0.470;2023-05-24T06:47:37;102388.16;;;12.13;35.15
39954;BME280;25631;51.516;-0.470;2023-05-24T06:50:13;102386.21;;;12.10;35.07
39954;BME280;25631;51.516;-0.470;2023-05-24T06:52:50;102383.59;;;12.11;35.14
39954;BME280;25631;51.516;-0.470;2023-05-24T06:55:26;102380.31;;;12.30;35.08
39954;BME280;25631;51.516;-0.470;2023-05-24T06:58:03;102383.31;;;12.18;35.15
39954;BME280;25631;51.516;-0.470;2023-05-24T07:00:40;102385.54;;;12.50;35.11
39954;BME280;25631;51.516;-0.470;2023-05-24T07:03:16;102381.86;;;12.57;35.04
39954;BME280;25631;51.516;-0.470;2023-05-24T07:05:52;102385.89;;;12.37;35.30
39954;BME280;25631;51.516;-0.470;2023-05-24T07:08:29;102385.53;;;12.40;35.32
39954;BME280;25631;51.516;-0.470;2023-05-24T07:11:05;102387.36;;;12.68;35.25
39954;BME280;25631;51.516;-0.470;2023-05-24T07:13:42;102384.36;;;12.61;35.22
39954;BME280;25631;51.516;-0.470;2023-05-24T07:16:19;102385.91;;;12.79;35.04
39954;BME280;25631;51.516;-0.470;2023-05-24T07:18:55;102390.04;;;13.14;34.84
39954;BME280;25631;51.516;-0.470;2023-05-24T07:21:32;102389.72;;;12.93;34.69
39954;BME280;25631;51.516;-0.470;2023-05-24T07:24:08;102391.37;;;13.32;34.70
39954;BME280;25631;51.516;-0.470;2023-05-24T07:26:45;102388.93;;;12.86;34.39
39954;BME280;25631;51.516;-0.470;2023-05-24T07:29:21;102387.66;;;12.98;34.07
39954;BME280;25631;51.516;-0.470;2023-05-24T07:31:58;102389.69;;;13.24;34.02
39954;BME280;25631;51.516;-0.470;2023-05-24T07:34:34;102395.81;;;13.13;34.03
39954;BME280;25631;51.516;-0.470;2023-05-24T07:37:11;102398.09;;;13.31;34.03
39954;BME280;25631;51.516;-0.470;2023-05-24T07:39:47;102389.37;;;13.07;34.05
39954;BME280;25631;51.516;-0.470;2023-05-24T07:42:24;102391.75;;;13.35;34.00
39954;BME280;25631;51.516;-0.470;2023-05-24T07:45:01;102398.97;;;13.22;33.88
39954;BME280;25631;51.516;-0.470;2023-05-24T07:47:38;102400.44;;;13.46;33.99
39954;BME280;25631;51.516;-0.470;2023-05-24T07:50:15;102391.50;;;13.21;33.86
39954;BME280;25631;51.516;-0.470;2023-05-24T07:52:52;102389.04;;;13.43;33.84
39954;BME280;25631;51.516;-0.470;2023-05-24T07:55:28;102390.40;;;13.86;33.85
39954;BME280;25631;51.516;-0.470;2023-05-24T07:58:04;102391.36;;;13.80;33.82
39954;BME280;25631;51.516;-0.470;2023-05-24T08:00:41;102393.07;;;13.71;33.75
39954;BME280;25631;51.516;-0.470;2023-05-24T08:03:17;102395.64;;;14.18;33.52
39954;BME280;25631;51.516;-0.470;2023-05-24T08:05:54;102391.93;;;14.08;33.41
39954;BME280;25631;51.516;-0.470;2023-05-24T08:08:30;102387.03;;;14.27;33.08
39954;BME280;25631;51.516;-0.470;2023-05-24T08:11:07;102383.91;;;14.19;33.15
39954;BME280;25631;51.516;-0.470;2023-05-24T08:13:43;102384.38;;;14.26;33.10
39954;BME280;25631;51.516;-0.470;2023-05-24T08:16:20;102385.50;;;13.94;33.04
39954;BME280;25631;51.516;-0.470;2023-05-24T08:18:57;102387.68;;;13.67;32.86
39954;BME280;25631;51.516;-0.470;2023-05-24T08:21:33;102389.10;;;13.96;32.93
39954;BME280;25631;51.516;-0.470;2023-05-24T08:24:10;102392.09;;;14.00;32.97
39954;BME280;25631;51.516;-0.470;2023-05-24T08:29:01;102388.75;;;14.18;33.07
39954;BME280;25631;51.516;-0.470;2023-05-24T08:31:37;102391.47;;;14.12;33.02
39954;BME280;25631;51.516;-0.470;2023-05-24T08:34:14;102390.27;;;14.02;32.99
39954;BME280;25631;51.516;-0.470;2023-05-24T08:36:50;102391.93;;;14.14;33.09
39954;BME280;25631;51.516;-0.470;2023-05-24T08:39:26;102387.45;;;14.45;33.10
39954;BME280;25631;51.516;-0.470;2023-05-24T08:42:05;102385.05;;;14.12;33.12
39954;BME280;25631;51.516;-0.470;2023-05-24T08:44:47;102374.56;;;14.05;33.00
39954;BME280;25631;51.516;-0.470;2023-05-24T08:47:24;102365.62;;;14.46;32.89
39954;BME280;25631;51.516;-0.470;2023-05-24T08:50:02;102364.24;;;14.37;32.66
39954;BME280;25631;51.516;-0.470;2023-05-24T08:52:41;102366.74;;;14.54;32.02
39954;BME280;25631;51.516;-0.470;2023-05-24T08:55:18;102364.32;;;14.42;31.98
39954;BME280;25631;51.516;-0.470;2023-05-24T08:57:55;102360.15;;;14.71;31.97
39954;BME280;25631;51.516;-0.470;2023-05-24T09:00:31;102354.79;;;14.78;31.91
39954;BME280;25631;51.516;-0.470;2023-05-24T09:03:09;102357.71;;;14.95;31.85
39954;BME280;25631;51.516;-0.470;2023-05-24T09:05:46;102352.95;;;14.99;31.78
39954;BME280;25631;51.516;-0.470;2023-05-24T09:08:23;102346.96;;;15.02;31.68
39954;BME280;25631;51.516;-0.470;2023-05-24T09:11:00;102347.45;;;15.02;31.67
39954;BME280;25631;51.516;-0.470;2023-05-24T09:13:38;102341.52;;;15.07;31.56
39954;BME280;25631;51.516;-0.470;2023-05-24T09:16:15;102342.10;;;14.99;31.59
39954;BME280;25631;51.516;-0.470;2023-05-24T09:18:51;102343.16;;;15.03;31.81
39954;BME280;25631;51.516;-0.470;2023-05-24T09:21:28;102345.88;;;15.11;31.91
39954;BME280;25631;51.516;-0.470;2023-05-24T09:24:07;102342.64;;;15.35;31.95
39954;BME280;25631;51.516;-0.470;2023-05-24T09:26:44;102341.02;;;15.46;31.74
39954;BME280;25631;51.516;-0.470;2023-05-24T09:29:21;102342.68;;;15.54;31.72
39954;BME280;25631;51.516;-0.470;2023-05-24T09:31:58;102339.44;;;15.23;31.30
39954;BME280;25631;51.516;-0.470;2023-05-24T09:34:38;102340.96;;;15.39;30.93
39954;BME280;25631;51.516;-0.470;2023-05-24T09:37:16;102336.89;;;15.49;31.20
39954;BME280;25631;51.516;-0.470;2023-05-24T09:39:53;102340.58;;;15.47;31.30
39954;BME280;25631;51.516;-0.470;2023-05-24T09:42:30;102338.52;;;15.47;31.13
39954;BME280;25631;51.516;-0.470;2023-05-24T09:45:07;102341.63;;;15.51;30.99
39954;BME280;25631;51.516;-0.470;2023-05-24T09:47:44;102340.32;;;15.37;30.67
39954;BME280;25631;51.516;-0.470;2023-05-24T09:50:20;102343.80;;;15.73;30.55
39954;BME280;25631;51.516;-0.470;2023-05-24T09:52:57;102338.44;;;15.82;30.50
39954;BME280;25631;51.516;-0.470;2023-05-24T09:55:35;102342.73;;;15.63;30.79
39954;BME280;25631;51.516;-0.470;2023-05-24T09:58:12;102345.22;;;15.59;30.85
39954;BME280;25631;51.516;-0.470;2023-05-24T10:00:49;102343.22;;;15.48;31.02
39954;BME280;25631;51.516;-0.470;2023-05-24T10:03:26;102347.28;;;15.50;30.59
39954;BME280;25631;51.516;-0.470;2023-05-24T10:06:05;102338.03;;;15.85;30.09
39954;BME280;25631;51.516;-0.470;2023-05-24T10:08:42;102337.35;;;15.85;30.09
39954;BME280;25631;51.516;-0.470;2023-05-24T10:11:18;102333.28;;;15.89;30.10
39954;BME280;25631;51.516;-0.470;2023-05-24T10:13:55;102326.77;;;16.10;30.10
39954;BME280;25631;51.516;-0.470;2023-05-24T10:16:31;102328.43;;;16.35;30.07
39954;BME280;25631;51.516;-0.470;2023-05-24T10:19:08;102319.46;;;16.02;30.09
39954;BME280;25631;51.516;-0.470;2023-05-24T10:21:45;102318.96;;;16.46;30.12
39954;BME280;25631;51.516;-0.470;2023-05-24T10:24:24;102321.49;;;16.24;29.87
39954;BME280;25631;51.516;-0.470;2023-05-24T10:27:04;102322.42;;;16.56;30.09
39954;BME280;25631;51.516;-0.470;2023-05-24T10:29:52;102323.80;;;16.68;30.10
39954;BME280;25631;51.516;-0.470;2023-05-24T10:32:33;102323.52;;;16.85;29.66
39954;BME280;25631;51.516;-0.470;2023-05-24T10:35:11;102320.21;;;16.93;29.78
39954;BME280;25631;51.516;-0.470;2023-05-24T10:37:49;102311.01;;;17.07;29.74
39954;BME280;25631;51.516;-0.470;2023-05-24T10:40:25;102310.12;;;16.86;29.57
39954;BME280;25631;51.516;-0.470;2023-05-24T10:43:03;102311.75;;;17.31;29.52
39954;BME280;25631;51.516;-0.470;2023-05-24T10:45:40;102309.71;;;17.07;29.26
39954;BME280;25631;51.516;-0.470;2023-05-24T10:49:22;102308.91;;;17.25;29.58
39954;BME280;25631;51.516;-0.470;2023-05-24T10:52:06;102301.85;;;17.37;29.65
39954;BME280;25631;51.516;-0.470;2023-05-24T10:55:00;102300.75;;;17.13;29.82
39954;BME280;25631;51.516;-0.470;2023-05-24T10:57:38;102302.56;;;17.52;29.31
39954;BME280;25631;51.516;-0.470;2023-05-24T11:00:26;102306.46;;;17.47;29.16
39954;BME280;25631;51.516;-0.470;2023-05-24T11:03:07;102301.68;;;17.28;29.27
39954;BME280;25631;51.516;-0.470;2023-05-24T11:05:49;102306.65;;;17.62;29.27
39954;BME280;25631;51.516;-0.470;2023-05-24T11:08:30;102303.05;;;17.79;29.26
39954;BME280;25631;51.516;-0.470;2023-05-24T11:11:08;102302.51;;;18.00;28.98
39954;BME280;25631;51.516;-0.470;2023-05-24T11:13:47;102304.20;;;17.90;29.16
39954;BME280;25631;51.516;-0.470;2023-05-24T11:16:39;102304.92;;;17.82;29.12
39954;BME280;25631;51.516;-0.470;2023-05-24T11:19:17;102301.91;;;17.89;28.72
39954;BME280;25631;51.516;-0.470;2023-05-24T11:21:56;102302.55;;;17.88;28.69
39954;BME280;25631;51.516;-0.470;2023-05-24T11:24:33;102299.19;;;17.99;28.52
39954;BME280;25631;51.516;-0.470;2023-05-24T11:27:11;102301.74;;;18.17;28.63
39954;BME280;25631;51.516;-0.470;2023-05-24T11:29:48;102300.51;;;18.43;28.53
39954;BME280;25631;51.516;-0.470;2023-05-24T11:32:24;102303.39;;;18.14;27.84
39954;BME280;25631;51.516;-0.470;2023-05-24T11:35:01;102304.34;;;18.39;27.73
39954;BME280;25631;51.516;-0.470;2023-05-24T11:37:37;102305.20;;;18.32;27.45
39954;BME280;25631;51.516;-0.470;2023-05-24T11:40:14;102297.61;;;18.45;27.58
39954;BME280;25631;51.516;-0.470;2023-05-24T11:42:51;102299.84;;;18.72;27.91
39954;BME280;25631;51.516;-0.470;2023-05-24T11:45:28;102302.72;;;18.96;27.94
39954;BME280;25631;51.516;-0.470;2023-05-24T11:48:04;102307.53;;;18.85;27.75
39954;BME280;25631;51.516;-0.470;2023-05-24T11:50:42;102304.34;;;19.02;27.61
39954;BME280;25631;51.516;-0.470;2023-05-24T11:53:19;102303.80;;;18.95;27.57
39954;BME280;25631;51.516;-0.470;2023-05-24T11:55:55;102299.78;;;19.08;27.12
39954;BME280;25631;51.516;-0.470;2023-05-24T11:58:47;102298.05;;;18.94;26.90
39954;BME280;25631;51.516;-0.470;2023-05-24T12:01:25;102296.95;;;19.01;26.92
39954;BME280;25631;51.516;-0.470;2023-05-24T12:04:04;102290.95;;;19.02;26.91
39954;BME280;25631;51.516;-0.470;2023-05-24T12:06:42;102302.70;;;18.73;27.09
39954;BME280;25631;51.516;-0.470;2023-05-24T12:09:18;102297.53;;;19.26;26.78
39954;BME280;25631;51.516;-0.470;2023-05-24T12:11:55;102291.20;;;19.43;26.80
39954;BME280;25631;51.516;-0.470;2023-05-24T12:14:32;102292.76;;;19.02;27.03
39954;BME280;25631;51.516;-0.470;2023-05-24T12:17:13;102288.74;;;19.29;27.16
39954;BME280;25631;51.516;-0.470;2023-05-24T12:19:50;102289.39;;;19.22;27.36
39954;BME280;25631;51.516;-0.470;2023-05-24T12:22:27;102293.09;;;19.46;26.95
39954;BME280;25631;51.516;-0.470;2023-05-24T12:25:05;102295.64;;;19.35;27.06
39954;BME280;25631;51.516;-0.470;2023-05-24T12:27:43;102294.08;;;19.14;27.08
39954;BME280;25631;51.516;-0.470;2023-05-24T12:30:22;102292.74;;;19.54;26.75
39954;BME280;25631;51.516;-0.470;2023-05-24T12:32:59;102296.50;;;19.63;26.26
39954;BME280;25631;51.516;-0.470;2023-05-24T12:35:36;102301.43;;;19.83;26.05
39954;BME280;25631;51.516;-0.470;2023-05-24T12:38:12;102300.27;;;19.91;25.68
39954;BME280;25631;51.516;-0.470;2023-05-24T12:40:49;102299.82;;;19.94;25.89
39954;BME280;25631;51.516;-0.470;2023-05-24T12:43:26;102299.99;;;19.95;25.78
39954;BME280;25631;51.516;-0.470;2023-05-24T12:46:04;102295.71;;;19.85;25.87
39954;BME280;25631;51.516;-0.470;2023-05-24T12:48:40;102287.38;;;19.90;25.35
39954;BME280;25631;51.516;-0.470;2023-05-24T12:51:17;102283.82;;;20.27;25.51
39954;BME280;25631;51.516;-0.470;2023-05-24T12:53:53;102280.76;;;20.30;25.52
39954;BME280;25631;51.516;-0.470;2023-05-24T12:56:30;102281.37;;;20.06;25.75
39954;BME280;25631;51.516;-0.470;2023-05-24T12:59:06;102280.95;;;20.38;25.78
39954;BME280;25631;51.516;-0.470;2023-05-24T13:01:43;102275.94;;;20.39;25.53
39954;BME280;25631;51.516;-0.470;2023-05-24T13:04:21;102273.96;;;20.24;25.04
39954;BME280;25631;51.516;-0.470;2023-05-24T13:06:58;102278.17;;;20.24;25.20
39954;BME280;25631;51.516;-0.470;2023-05-24T13:09:35;102277.05;;;20.35;25.37
39954;BME280;25631;51.516;-0.470;2023-05-24T13:12:12;102272.60;;;20.60;25.49
39954;BME280;25631;51.516;-0.470;2023-05-24T13:14:48;102274.19;;;20.54;25.75
39954;BME280;25631;51.516;-0.470;2023-05-24T13:17:24;102269.01;;;20.41;25.60
39954;BME280;25631;51.516;-0.470;2023-05-24T13:20:04;102267.66;;;20.90;25.08
39954;BME280;25631;51.516;-0.470;2023-05-24T13:22:41;102258.33;;;21.19;24.09
39954;BME280;25631;51.516;-0.470;2023-05-24T13:25:17;102256.54;;;21.61;24.11
39954;BME280;25631;51.516;-0.470;2023-05-24T13:27:54;102252.27;;;21.43;24.53
39954;BME280;25631;51.516;-0.470;2023-05-24T13:30:30;102254.13;;;21.43;24.29
39954;BME280;25631;51.516;-0.470;2023-05-24T13:33:07;102254.63;;;21.60;23.89
39954;BME280;25631;51.516;-0.470;2023-05-24T13:35:43;102254.64;;;21.59;24.18